sensor_id;sensor_type;location;lat;lon;timestamp;temperature;humidity
68274;SHT30;55104;47.356;19.448;2022-09-09T00:03:00;18.68;93.07
68274;SHT30;55104;47.356;19.448;2022-09-09T00:09:16;18.65;93.24
68274;SHT30;55104;47.356;19.448;2022-09-09T00:12:27;18.62;93.27
68274;SHT30;55104;47.356;19.448;2022-09-09T00:15:41;18.61;93.28
68274;SHT30;55104;47.356;19.448;2022-09-09T00:25:10;18.48;93.22
68274;SHT30;55104;47.356;19.448;2022-09-09T00:28:20;18.45;92.95
68274;SHT30;55104;47.356;19.448;2022-09-09T00:31:29;18.38;93.11
68274;SHT30;55104;47.356;19.448;2022-09-09T00:34:32;18.33;93.26
68274;SHT30;55104;47.356;19.448;2022-09-09T00:37:34;18.28;93.32
68274;SHT30;55104;47.356;19.448;2022-09-09T00:40:49;18.24;93.62
68274;SHT30;55104;47.356;19.448;2022-09-09T00:44:20;18.21;93.19
68274;SHT30;55104;47.356;19.448;2022-09-09T00:50:49;18.17;93.00
68274;SHT30;55104;47.356;19.448;2022-09-09T00:57:30;18.03;93.15
68274;SHT30;55104;47.356;19.448;2022-09-09T01:00:43;18.00;93.53
68274;SHT30;55104;47.356;19.448;2022-09-09T01:03:53;17.97;93.39
68274;SHT30;55104;47.356;19.448;2022-09-09T01:07:03;17.93;93.36
68274;SHT30;55104;47.356;19.448;2022-09-09T01:10:28;17.85;93.15
68274;SHT30;55104;47.356;19.448;2022-09-09T01:13:34;17.79;92.94
68274;SHT30;55104;47.356;19.448;2022-09-09T01:16:43;17.76;93.21
68274;SHT30;55104;47.356;19.448;2022-09-09T01:23:41;17.65;93.22
68274;SHT30;55104;47.356;19.448;2022-09-09T01:26:59;17.62;93.10
68274;SHT30;55104;47.356;19.448;2022-09-09T01:30:09;17.58;93.09
68274;SHT30;55104;47.356;19.448;2022-09-09T01:33:17;17.54;93.14
68274;SHT30;55104;47.356;19.448;2022-09-09T01:36:38;17.54;93.39
68274;SHT30;55104;47.356;19.448;2022-09-09T01:39:43;17.51;93.43
68274;SHT30;55104;47.356;19.448;2022-09-09T01:42:49;17.48;93.20
68274;SHT30;55104;47.356;19.448;2022-09-09T01:45:59;17.42;93.17
68274;SHT30;55104;47.356;19.448;2022-09-09T01:49:06;17.44;93.19
68274;SHT30;55104;47.356;19.448;2022-09-09T01:52:09;17.39;93.26
68274;SHT30;55104;47.356;19.448;2022-09-09T01:55:13;17.35;93.25
68274;SHT30;55104;47.356;19.448;2022-09-09T02:08:27;17.21;93.98
68274;SHT30;55104;47.356;19.448;2022-09-09T02:11:37;17.16;93.79
68274;SHT30;55104;47.356;19.448;2022-09-09T02:15:05;17.16;93.76
68274;SHT30;55104;47.356;19.448;2022-09-09T02:18:28;17.18;93.45
68274;SHT30;55104;47.356;19.448;2022-09-09T02:21:32;17.07;93.85
68274;SHT30;55104;47.356;19.448;2022-09-09T02:24:38;17.03;94.16
68274;SHT30;55104;47.356;19.448;2022-09-09T02:27:52;16.96;93.98
68274;SHT30;55104;47.356;19.448;2022-09-09T02:30:55;17.03;94.26
68274;SHT30;55104;47.356;19.448;2022-09-09T02:34:06;17.00;93.98
68274;SHT30;55104;47.356;19.448;2022-09-09T02:37:15;17.02;93.95
68274;SHT30;55104;47.356;19.448;2022-09-09T02:40:23;17.06;93.77
68274;SHT30;55104;47.356;19.448;2022-09-09T02:43:33;17.03;93.96
68274;SHT30;55104;47.356;19.448;2022-09-09T02:53:18;17.00;93.82
68274;SHT30;55104;47.356;19.448;2022-09-09T02:56:25;17.06;93.71
68274;SHT30;55104;47.356;19.448;2022-09-09T02:59:30;17.02;93.53
68274;SHT30;55104;47.356;19.448;2022-09-09T03:02:33;17.00;93.66
68274;SHT30;55104;47.356;19.448;2022-09-09T03:05:39;17.00;93.71
68274;SHT30;55104;47.356;19.448;2022-09-09T03:08:45;17.02;93.77
68274;SHT30;55104;47.356;19.448;2022-09-09T03:11:53;16.97;93.72
68274;SHT30;55104;47.356;19.448;2022-09-09T03:14:57;16.96;93.40
68274;SHT30;55104;47.356;19.448;2022-09-09T03:18:00;16.94;94.11
68274;SHT30;55104;47.356;19.448;2022-09-09T03:21:02;16.96;93.94
68274;SHT30;55104;47.356;19.448;2022-09-09T03:24:05;16.94;94.15
68274;SHT30;55104;47.356;19.448;2022-09-09T03:27:08;16.96;94.30
68274;SHT30;55104;47.356;19.448;2022-09-09T03:30:12;16.86;94.38
68274;SHT30;55104;47.356;19.448;2022-09-09T03:33:16;16.84;94.38
68274;SHT30;55104;47.356;19.448;2022-09-09T03:36:20;16.90;94.05
68274;SHT30;55104;47.356;19.448;2022-09-09T03:39:23;16.96;94.23
68274;SHT30;55104;47.356;19.448;2022-09-09T03:42:25;16.90;94.07
68274;SHT30;55104;47.356;19.448;2022-09-09T03:45:29;16.87;94.11
68274;SHT30;55104;47.356;19.448;2022-09-09T03:48:32;16.89;94.32
68274;SHT30;55104;47.356;19.448;2022-09-09T03:51:34;16.86;94.39
68274;SHT30;55104;47.356;19.448;2022-09-09T03:54:39;16.84;94.61
68274;SHT30;55104;47.356;19.448;2022-09-09T03:57:43;16.77;94.53
68274;SHT30;55104;47.356;19.448;2022-09-09T04:01:02;16.77;94.40
68274;SHT30;55104;47.356;19.448;2022-09-09T04:04:04;16.80;94.40
68274;SHT30;55104;47.356;19.448;2022-09-09T04:07:07;16.76;94.42
68274;SHT30;55104;47.356;19.448;2022-09-09T04:10:09;16.77;94.31
68274;SHT30;55104;47.356;19.448;2022-09-09T04:13:14;16.75;94.49
68274;SHT30;55104;47.356;19.448;2022-09-09T04:16:18;16.69;94.59
68274;SHT30;55104;47.356;19.448;2022-09-09T04:19:20;16.71;94.72
68274;SHT30;55104;47.356;19.448;2022-09-09T04:22:23;16.71;94.76
68274;SHT30;55104;47.356;19.448;2022-09-09T04:25:26;16.72;95.03
68274;SHT30;55104;47.356;19.448;2022-09-09T04:28:33;16.73;94.67
68274;SHT30;55104;47.356;19.448;2022-09-09T04:31:35;16.72;94.67
68274;SHT30;55104;47.356;19.448;2022-09-09T04:34:38;16.71;94.80
68274;SHT30;55104;47.356;19.448;2022-09-09T04:37:40;16.72;94.76
68274;SHT30;55104;47.356;19.448;2022-09-09T04:40:50;16.76;94.73
68274;SHT30;55104;47.356;19.448;2022-09-09T04:43:53;16.79;94.81
68274;SHT30;55104;47.356;19.448;2022-09-09T04:46:56;16.84;94.71
68274;SHT30;55104;47.356;19.448;2022-09-09T04:49:58;16.84;94.77
68274;SHT30;55104;47.356;19.448;2022-09-09T04:53:02;16.83;94.51
68274;SHT30;55104;47.356;19.448;2022-09-09T04:56:08;16.86;94.32
68274;SHT30;55104;47.356;19.448;2022-09-09T04:59:16;16.87;94.53
68274;SHT30;55104;47.356;19.448;2022-09-09T05:02:21;16.93;94.55
68274;SHT30;55104;47.356;19.448;2022-09-09T05:05:24;16.99;94.41
68274;SHT30;55104;47.356;19.448;2022-09-09T05:08:27;17.07;94.58
68274;SHT30;55104;47.356;19.448;2022-09-09T05:11:31;17.11;94.21
68274;SHT30;55104;47.356;19.448;2022-09-09T05:14:57;17.17;93.82
68274;SHT30;55104;47.356;19.448;2022-09-09T05:18:00;17.21;93.94
68274;SHT30;55104;47.356;19.448;2022-09-09T05:21:04;17.23;93.93
68274;SHT30;55104;47.356;19.448;2022-09-09T05:24:08;17.28;93.66
68274;SHT30;55104;47.356;19.448;2022-09-09T05:27:10;17.28;93.39
68274;SHT30;55104;47.356;19.448;2022-09-09T05:30:14;17.34;93.46
68274;SHT30;55104;47.356;19.448;2022-09-09T05:33:16;17.38;93.42
68274;SHT30;55104;47.356;19.448;2022-09-09T05:36:20;17.42;93.50
68274;SHT30;55104;47.356;19.448;2022-09-09T05:39:26;17.44;93.45
68274;SHT30;55104;47.356;19.448;2022-09-09T05:42:32;17.48;92.87
68274;SHT30;55104;47.356;19.448;2022-09-09T05:45:35;17.49;92.86
68274;SHT30;55104;47.356;19.448;2022-09-09T05:48:40;17.58;92.28
68274;SHT30;55104;47.356;19.448;2022-09-09T05:51:42;17.56;92.56
68274;SHT30;55104;47.356;19.448;2022-09-09T05:54:47;17.54;92.59
68274;SHT30;55104;47.356;19.448;2022-09-09T05:57:49;17.64;92.56
68274;SHT30;55104;47.356;19.448;2022-09-09T06:00:51;17.58;93.10
68274;SHT30;55104;47.356;19.448;2022-09-09T06:03:54;17.62;92.87
68274;SHT30;55104;47.356;19.448;2022-09-09T06:06:57;17.71;92.71
68274;SHT30;55104;47.356;19.448;2022-09-09T06:10:05;17.72;92.78
68274;SHT30;55104;47.356;19.448;2022-09-09T06:13:08;17.87;92.43
68274;SHT30;55104;47.356;19.448;2022-09-09T06:16:17;18.03;91.45
68274;SHT30;55104;47.356;19.448;2022-09-09T06:19:20;18.18;90.93
68274;SHT30;55104;47.356;19.448;2022-09-09T06:22:23;18.30;89.76
68274;SHT30;55104;47.356;19.448;2022-09-09T06:25:25;18.49;89.93
68274;SHT30;55104;47.356;19.448;2022-09-09T06:28:28;18.61;88.77
68274;SHT30;55104;47.356;19.448;2022-09-09T06:31:32;18.66;87.03
68274;SHT30;55104;47.356;19.448;2022-09-09T06:34:42;18.88;88.03
68274;SHT30;55104;47.356;19.448;2022-09-09T06:37:45;19.10;88.13
68274;SHT30;55104;47.356;19.448;2022-09-09T06:40:54;19.24;87.25
68274;SHT30;55104;47.356;19.448;2022-09-09T06:43:58;19.26;86.16
68274;SHT30;55104;47.356;19.448;2022-09-09T06:47:08;19.30;87.39
68274;SHT30;55104;47.356;19.448;2022-09-09T06:50:11;19.16;87.24
68274;SHT30;55104;47.356;19.448;2022-09-09T06:53:16;19.23;86.31
68274;SHT30;55104;47.356;19.448;2022-09-09T06:56:24;19.23;87.71
68274;SHT30;55104;47.356;19.448;2022-09-09T06:59:28;19.44;86.80
68274;SHT30;55104;47.356;19.448;2022-09-09T07:02:34;19.51;86.46
68274;SHT30;55104;47.356;19.448;2022-09-09T07:05:41;19.62;86.13
68274;SHT30;55104;47.356;19.448;2022-09-09T07:08:44;19.66;85.39
68274;SHT30;55104;47.356;19.448;2022-09-09T07:12:00;19.68;85.03
68274;SHT30;55104;47.356;19.448;2022-09-09T07:15:07;19.82;84.25
68274;SHT30;55104;47.356;19.448;2022-09-09T07:18:12;19.62;83.82
68274;SHT30;55104;47.356;19.448;2022-09-09T07:21:14;19.74;84.52
68274;SHT30;55104;47.356;19.448;2022-09-09T07:24:17;19.64;84.51
68274;SHT30;55104;47.356;19.448;2022-09-09T07:27:21;19.90;83.78
68274;SHT30;55104;47.356;19.448;2022-09-09T07:30:24;20.30;84.31
68274;SHT30;55104;47.356;19.448;2022-09-09T07:33:31;20.50;82.45
68274;SHT30;55104;47.356;19.448;2022-09-09T07:36:38;20.52;81.05
68274;SHT30;55104;47.356;19.448;2022-09-09T07:39:43;20.63;82.20
68274;SHT30;55104;47.356;19.448;2022-09-09T07:42:46;20.45;79.64
68274;SHT30;55104;47.356;19.448;2022-09-09T07:45:57;20.47;81.77
68274;SHT30;55104;47.356;19.448;2022-09-09T07:49:00;20.51;81.98
68274;SHT30;55104;47.356;19.448;2022-09-09T07:52:03;20.58;81.50
68274;SHT30;55104;47.356;19.448;2022-09-09T07:55:07;20.74;81.16
68274;SHT30;55104;47.356;19.448;2022-09-09T07:58:09;20.85;79.33
68274;SHT30;55104;47.356;19.448;2022-09-09T08:01:20;20.91;78.73
68274;SHT30;55104;47.356;19.448;2022-09-09T08:04:24;20.93;76.97
68274;SHT30;55104;47.356;19.448;2022-09-09T08:07:27;21.02;76.33
68274;SHT30;55104;47.356;19.448;2022-09-09T08:10:30;21.10;77.07
68274;SHT30;55104;47.356;19.448;2022-09-09T08:13:37;21.33;78.19
68274;SHT30;55104;47.356;19.448;2022-09-09T08:16:44;21.51;76.41
68274;SHT30;55104;47.356;19.448;2022-09-09T08:19:50;21.48;72.13
68274;SHT30;55104;47.356;19.448;2022-09-09T08:22:57;21.61;74.93
68274;SHT30;55104;47.356;19.448;2022-09-09T08:26:14;21.78;74.58
68274;SHT30;55104;47.356;19.448;2022-09-09T08:29:17;21.85;75.66
68274;SHT30;55104;47.356;19.448;2022-09-09T08:32:22;22.02;74.34
68274;SHT30;55104;47.356;19.448;2022-09-09T08:35:24;22.24;74.53
68274;SHT30;55104;47.356;19.448;2022-09-09T08:38:27;22.37;73.96
68274;SHT30;55104;47.356;19.448;2022-09-09T08:45:09;22.43;70.22
68274;SHT30;55104;47.356;19.448;2022-09-09T08:48:43;22.56;70.59
68274;SHT30;55104;47.356;19.448;2022-09-09T08:51:48;22.77;69.81
68274;SHT30;55104;47.356;19.448;2022-09-09T08:54:52;22.72;67.61
68274;SHT30;55104;47.356;19.448;2022-09-09T08:57:57;22.78;67.09
68274;SHT30;55104;47.356;19.448;2022-09-09T09:04:56;23.12;67.06
68274;SHT30;55104;47.356;19.448;2022-09-09T09:08:26;23.16;65.78
68274;SHT30;55104;47.356;19.448;2022-09-09T09:11:38;23.30;64.04
68274;SHT30;55104;47.356;19.448;2022-09-09T09:14:42;23.45;64.02
68274;SHT30;55104;47.356;19.448;2022-09-09T09:17:46;23.51;65.03
68274;SHT30;55104;47.356;19.448;2022-09-09T09:31:12;23.82;64.34
68274;SHT30;55104;47.356;19.448;2022-09-09T09:34:21;23.95;62.72
68274;SHT30;55104;47.356;19.448;2022-09-09T09:37:29;23.84;60.92
68274;SHT30;55104;47.356;19.448;2022-09-09T09:40:35;23.91;61.98
68274;SHT30;55104;47.356;19.448;2022-09-09T09:43:40;24.33;61.92
68274;SHT30;55104;47.356;19.448;2022-09-09T09:46:49;24.46;59.57
68274;SHT30;55104;47.356;19.448;2022-09-09T09:49:58;24.52;60.13
68274;SHT30;55104;47.356;19.448;2022-09-09T09:53:04;24.61;58.30
68274;SHT30;55104;47.356;19.448;2022-09-09T09:56:13;24.84;59.76
68274;SHT30;55104;47.356;19.448;2022-09-09T09:59:34;24.98;59.04
68274;SHT30;55104;47.356;19.448;2022-09-09T10:02:47;25.16;57.15
68274;SHT30;55104;47.356;19.448;2022-09-09T10:05:55;25.08;57.62
68274;SHT30;55104;47.356;19.448;2022-09-09T10:08:58;25.08;56.91
68274;SHT30;55104;47.356;19.448;2022-09-09T10:15:30;25.32;57.52
68274;SHT30;55104;47.356;19.448;2022-09-09T10:19:03;25.63;56.67
68274;SHT30;55104;47.356;19.448;2022-09-09T10:25:43;25.83;53.69
68274;SHT30;55104;47.356;19.448;2022-09-09T10:29:10;26.00;49.87
68274;SHT30;55104;47.356;19.448;2022-09-09T10:32:38;26.08;54.16
68274;SHT30;55104;47.356;19.448;2022-09-09T10:35:53;26.18;53.65
68274;SHT30;55104;47.356;19.448;2022-09-09T10:39:06;26.41;51.68
68274;SHT30;55104;47.356;19.448;2022-09-09T10:42:16;26.41;50.16
68274;SHT30;55104;47.356;19.448;2022-09-09T10:45:40;26.48;50.56
68274;SHT30;55104;47.356;19.448;2022-09-09T10:52:30;26.41;49.77
68274;SHT30;55104;47.356;19.448;2022-09-09T10:55:38;26.51;47.09
68274;SHT30;55104;47.356;19.448;2022-09-09T11:02:05;26.82;48.76
68274;SHT30;55104;47.356;19.448;2022-09-09T11:05:31;26.73;46.42
68274;SHT30;55104;47.356;19.448;2022-09-09T11:08:38;26.75;46.52
68274;SHT30;55104;47.356;19.448;2022-09-09T11:11:54;26.79;46.89
68274;SHT30;55104;47.356;19.448;2022-09-09T11:15:16;26.88;45.95
68274;SHT30;55104;47.356;19.448;2022-09-09T11:18:20;27.31;47.97
68274;SHT30;55104;47.356;19.448;2022-09-09T11:21:33;27.25;48.12
68274;SHT30;55104;47.356;19.448;2022-09-09T11:24:41;27.38;49.11
68274;SHT30;55104;47.356;19.448;2022-09-09T11:28:11;27.49;47.17
68274;SHT30;55104;47.356;19.448;2022-09-09T11:31:30;27.65;46.78
68274;SHT30;55104;47.356;19.448;2022-09-09T11:41:34;28.10;44.84
68274;SHT30;55104;47.356;19.448;2022-09-09T11:44:38;28.24;41.87
68274;SHT30;55104;47.356;19.448;2022-09-09T11:47:52;28.51;44.56
68274;SHT30;55104;47.356;19.448;2022-09-09T11:51:02;28.18;44.25
68274;SHT30;55104;47.356;19.448;2022-09-09T11:54:29;27.63;45.99
68274;SHT30;55104;47.356;19.448;2022-09-09T11:57:35;27.27;44.70
68274;SHT30;55104;47.356;19.448;2022-09-09T12:00:43;27.17;44.95
68274;SHT30;55104;47.356;19.448;2022-09-09T12:03:50;27.21;46.61
68274;SHT30;55104;47.356;19.448;2022-09-09T12:07:04;27.14;46.31
68274;SHT30;55104;47.356;19.448;2022-09-09T12:19:35;27.52;43.64
68274;SHT30;55104;47.356;19.448;2022-09-09T12:32:16;27.25;44.44
68274;SHT30;55104;47.356;19.448;2022-09-09T12:35:23;27.25;43.27
68274;SHT30;55104;47.356;19.448;2022-09-09T12:38:35;27.35;44.11
68274;SHT30;55104;47.356;19.448;2022-09-09T12:41:38;27.15;40.22
68274;SHT30;55104;47.356;19.448;2022-09-09T12:44:50;27.12;41.18
68274;SHT30;55104;47.356;19.448;2022-09-09T12:51:19;27.15;40.89
68274;SHT30;55104;47.356;19.448;2022-09-09T12:54:22;26.98;41.38
68274;SHT30;55104;47.356;19.448;2022-09-09T12:57:26;27.18;41.14
68274;SHT30;55104;47.356;19.448;2022-09-09T13:00:33;27.41;42.08
68274;SHT30;55104;47.356;19.448;2022-09-09T13:03:42;27.51;41.60
68274;SHT30;55104;47.356;19.448;2022-09-09T13:06:44;27.87;42.21
68274;SHT30;55104;47.356;19.448;2022-09-09T13:09:48;28.03;37.83
68274;SHT30;55104;47.356;19.448;2022-09-09T13:12:50;27.90;36.34
68274;SHT30;55104;47.356;19.448;2022-09-09T13:15:55;27.69;36.70
68274;SHT30;55104;47.356;19.448;2022-09-09T13:19:09;28.00;37.14
68274;SHT30;55104;47.356;19.448;2022-09-09T13:22:37;27.83;38.24
68274;SHT30;55104;47.356;19.448;2022-09-09T13:25:40;27.93;38.45
68274;SHT30;55104;47.356;19.448;2022-09-09T13:28:44;27.89;39.80
68274;SHT30;55104;47.356;19.448;2022-09-09T13:31:48;27.86;38.51
68274;SHT30;55104;47.356;19.448;2022-09-09T13:34:57;27.82;35.80
68274;SHT30;55104;47.356;19.448;2022-09-09T13:38:07;27.53;35.77
68274;SHT30;55104;47.356;19.448;2022-09-09T13:41:10;27.24;37.73
68274;SHT30;55104;47.356;19.448;2022-09-09T13:44:39;27.43;39.20
68274;SHT30;55104;47.356;19.448;2022-09-09T13:47:43;27.61;36.56
68274;SHT30;55104;47.356;19.448;2022-09-09T13:50:54;27.56;37.20
68274;SHT30;55104;47.356;19.448;2022-09-09T13:53:56;27.51;40.33
68274;SHT30;55104;47.356;19.448;2022-09-09T13:56:59;27.32;37.91
68274;SHT30;55104;47.356;19.448;2022-09-09T14:00:03;27.67;36.66
68274;SHT30;55104;47.356;19.448;2022-09-09T14:03:07;27.89;32.88
68274;SHT30;55104;47.356;19.448;2022-09-09T14:06:10;28.15;35.62
68274;SHT30;55104;47.356;19.448;2022-09-09T14:09:15;27.94;34.91
68274;SHT30;55104;47.356;19.448;2022-09-09T14:12:17;28.06;35.48
68274;SHT30;55104;47.356;19.448;2022-09-09T14:15:20;28.01;37.66
68274;SHT30;55104;47.356;19.448;2022-09-09T14:18:23;27.90;37.63
68274;SHT30;55104;47.356;19.448;2022-09-09T14:21:27;27.78;34.39
68274;SHT30;55104;47.356;19.448;2022-09-09T14:24:29;27.73;36.54
68274;SHT30;55104;47.356;19.448;2022-09-09T14:27:31;27.35;35.94
68274;SHT30;55104;47.356;19.448;2022-09-09T14:30:34;27.37;36.36
68274;SHT30;55104;47.356;19.448;2022-09-09T14:33:36;27.15;36.16
68274;SHT30;55104;47.356;19.448;2022-09-09T14:36:38;27.00;38.11
68274;SHT30;55104;47.356;19.448;2022-09-09T14:39:40;26.88;38.56
68274;SHT30;55104;47.356;19.448;2022-09-09T14:42:42;26.98;37.32
68274;SHT30;55104;47.356;19.448;2022-09-09T14:45:44;27.03;38.61
68274;SHT30;55104;47.356;19.448;2022-09-09T14:48:47;27.03;39.08
68274;SHT30;55104;47.356;19.448;2022-09-09T14:51:50;27.03;38.20
68274;SHT30;55104;47.356;19.448;2022-09-09T14:54:52;26.82;38.06
68274;SHT30;55104;47.356;19.448;2022-09-09T14:57:54;26.79;38.64
68274;SHT30;55104;47.356;19.448;2022-09-09T15:01:02;26.88;38.01
68274;SHT30;55104;47.356;19.448;2022-09-09T15:04:05;26.93;39.59
68274;SHT30;55104;47.356;19.448;2022-09-09T15:07:07;26.69;38.36
68274;SHT30;55104;47.356;19.448;2022-09-09T15:10:09;26.60;39.13
68274;SHT30;55104;47.356;19.448;2022-09-09T15:13:14;26.51;39.63
68274;SHT30;55104;47.356;19.448;2022-09-09T15:16:21;26.29;39.65
68274;SHT30;55104;47.356;19.448;2022-09-09T15:19:23;26.08;40.86
68274;SHT30;55104;47.356;19.448;2022-09-09T15:22:25;25.87;43.65
68274;SHT30;55104;47.356;19.448;2022-09-09T15:25:27;25.76;45.76
68274;SHT30;55104;47.356;19.448;2022-09-09T15:28:31;25.97;48.91
68274;SHT30;55104;47.356;19.448;2022-09-09T15:31:35;26.14;48.47
68274;SHT30;55104;47.356;19.448;2022-09-09T15:34:38;26.31;51.27
68274;SHT30;55104;47.356;19.448;2022-09-09T15:37:40;26.39;52.32
68274;SHT30;55104;47.356;19.448;2022-09-09T15:40:43;26.35;52.81
68274;SHT30;55104;47.356;19.448;2022-09-09T15:43:46;26.28;50.67
68274;SHT30;55104;47.356;19.448;2022-09-09T15:46:50;26.29;50.29
68274;SHT30;55104;47.356;19.448;2022-09-09T15:49:53;26.14;51.62
68274;SHT30;55104;47.356;19.448;2022-09-09T15:52:55;25.84;51.08
68274;SHT30;55104;47.356;19.448;2022-09-09T15:55:57;25.69;52.21
68274;SHT30;55104;47.356;19.448;2022-09-09T15:59:00;25.59;50.69
68274;SHT30;55104;47.356;19.448;2022-09-09T16:02:03;25.42;50.04
68274;SHT30;55104;47.356;19.448;2022-09-09T16:05:07;25.22;51.08
68274;SHT30;55104;47.356;19.448;2022-09-09T16:08:09;25.16;52.57
68274;SHT30;55104;47.356;19.448;2022-09-09T16:11:16;24.97;52.47
68274;SHT30;55104;47.356;19.448;2022-09-09T16:14:18;24.87;53.48
68274;SHT30;55104;47.356;19.448;2022-09-09T16:17:20;24.81;55.23
68274;SHT30;55104;47.356;19.448;2022-09-09T16:20:23;24.66;54.58
68274;SHT30;55104;47.356;19.448;2022-09-09T16:23:25;24.57;55.18
68274;SHT30;55104;47.356;19.448;2022-09-09T16:26:28;24.59;56.05
68274;SHT30;55104;47.356;19.448;2022-09-09T16:29:30;24.53;56.38
68274;SHT30;55104;47.356;19.448;2022-09-09T16:32:32;24.52;57.80
68274;SHT30;55104;47.356;19.448;2022-09-09T16:35:36;24.42;58.50
68274;SHT30;55104;47.356;19.448;2022-09-09T16:38:39;24.30;59.37
68274;SHT30;55104;47.356;19.448;2022-09-09T16:41:42;24.16;59.94
68274;SHT30;55104;47.356;19.448;2022-09-09T16:44:45;24.01;61.44
68274;SHT30;55104;47.356;19.448;2022-09-09T16:47:47;23.87;62.01
68274;SHT30;55104;47.356;19.448;2022-09-09T16:50:50;23.78;62.17
68274;SHT30;55104;47.356;19.448;2022-09-09T16:53:53;23.64;62.77
68274;SHT30;55104;47.356;19.448;2022-09-09T16:56:56;23.50;63.29
68274;SHT30;55104;47.356;19.448;2022-09-09T16:59:59;23.42;63.93
68274;SHT30;55104;47.356;19.448;2022-09-09T17:03:01;23.34;64.62
68274;SHT30;55104;47.356;19.448;2022-09-09T17:06:09;23.27;65.60
68274;SHT30;55104;47.356;19.448;2022-09-09T17:09:11;23.13;66.48
68274;SHT30;55104;47.356;19.448;2022-09-09T17:12:14;23.02;67.31
68274;SHT30;55104;47.356;19.448;2022-09-09T17:15:17;22.87;66.46
68274;SHT30;55104;47.356;19.448;2022-09-09T17:18:20;22.72;67.15
68274;SHT30;55104;47.356;19.448;2022-09-09T17:21:27;22.64;68.54
68274;SHT30;55104;47.356;19.448;2022-09-09T17:24:29;22.53;69.73
68274;SHT30;55104;47.356;19.448;2022-09-09T17:27:31;22.36;70.14
68274;SHT30;55104;47.356;19.448;2022-09-09T17:30:34;22.29;70.90
68274;SHT30;55104;47.356;19.448;2022-09-09T17:33:38;22.19;70.85
68274;SHT30;55104;47.356;19.448;2022-09-09T17:36:41;22.08;71.67
68274;SHT30;55104;47.356;19.448;2022-09-09T17:39:43;21.99;72.56
68274;SHT30;55104;47.356;19.448;2022-09-09T17:42:46;21.91;72.95
68274;SHT30;55104;47.356;19.448;2022-09-09T17:45:48;21.77;73.46
68274;SHT30;55104;47.356;19.448;2022-09-09T17:48:55;21.61;73.28
68274;SHT30;55104;47.356;19.448;2022-09-09T17:51:57;21.57;72.85
68274;SHT30;55104;47.356;19.448;2022-09-09T17:55:00;21.47;72.81
68274;SHT30;55104;47.356;19.448;2022-09-09T17:58:02;21.41;73.87
68274;SHT30;55104;47.356;19.448;2022-09-09T18:01:07;21.29;75.01
68274;SHT30;55104;47.356;19.448;2022-09-09T18:04:10;21.19;75.25
68274;SHT30;55104;47.356;19.448;2022-09-09T18:07:14;21.22;75.05
68274;SHT30;55104;47.356;19.448;2022-09-09T18:10:16;21.12;76.15
68274;SHT30;55104;47.356;19.448;2022-09-09T18:13:18;21.13;77.14
68274;SHT30;55104;47.356;19.448;2022-09-09T18:16:21;21.07;77.17
68274;SHT30;55104;47.356;19.448;2022-09-09T18:19:25;21.12;76.58
68274;SHT30;55104;47.356;19.448;2022-09-09T18:22:27;21.07;76.19
68274;SHT30;55104;47.356;19.448;2022-09-09T18:25:39;21.07;75.54
68274;SHT30;55104;47.356;19.448;2022-09-09T18:28:42;21.06;76.08
68274;SHT30;55104;47.356;19.448;2022-09-09T18:31:45;21.07;75.57
68274;SHT30;55104;47.356;19.448;2022-09-09T18:34:48;21.03;75.68
68274;SHT30;55104;47.356;19.448;2022-09-09T18:37:56;20.98;75.79
68274;SHT30;55104;47.356;19.448;2022-09-09T18:40:58;20.98;74.89
68274;SHT30;55104;47.356;19.448;2022-09-09T18:44:05;20.89;75.11
68274;SHT30;55104;47.356;19.448;2022-09-09T18:47:09;20.85;76.79
68274;SHT30;55104;47.356;19.448;2022-09-09T18:50:11;20.76;76.34
68274;SHT30;55104;47.356;19.448;2022-09-09T18:53:13;20.71;76.44
68274;SHT30;55104;47.356;19.448;2022-09-09T18:56:16;20.72;75.59
68274;SHT30;55104;47.356;19.448;2022-09-09T18:59:21;20.72;76.42
68274;SHT30;55104;47.356;19.448;2022-09-09T19:02:24;20.76;77.70
68274;SHT30;55104;47.356;19.448;2022-09-09T19:05:26;20.67;79.47
68274;SHT30;55104;47.356;19.448;2022-09-09T19:08:28;20.65;79.55
68274;SHT30;55104;47.356;19.448;2022-09-09T19:11:31;20.59;80.62
68274;SHT30;55104;47.356;19.448;2022-09-09T19:14:33;20.59;81.97
68274;SHT30;55104;47.356;19.448;2022-09-09T19:17:35;20.58;82.06
68274;SHT30;55104;47.356;19.448;2022-09-09T19:20:37;20.59;82.52
68274;SHT30;55104;47.356;19.448;2022-09-09T19:23:39;20.61;83.09
68274;SHT30;55104;47.356;19.448;2022-09-09T19:26:45;20.58;83.64
68274;SHT30;55104;47.356;19.448;2022-09-09T19:29:47;20.59;83.72
68274;SHT30;55104;47.356;19.448;2022-09-09T19:32:49;20.52;84.97
68274;SHT30;55104;47.356;19.448;2022-09-09T19:35:59;20.63;84.20
68274;SHT30;55104;47.356;19.448;2022-09-09T19:39:04;20.63;84.81
68274;SHT30;55104;47.356;19.448;2022-09-09T19:42:06;20.59;85.00
68274;SHT30;55104;47.356;19.448;2022-09-09T19:45:08;20.61;84.87
68274;SHT30;55104;47.356;19.448;2022-09-09T19:48:11;20.63;85.15
68274;SHT30;55104;47.356;19.448;2022-09-09T19:51:17;20.69;85.10
68274;SHT30;55104;47.356;19.448;2022-09-09T19:54:19;20.61;85.81
68274;SHT30;55104;47.356;19.448;2022-09-09T19:57:21;20.59;85.41
68274;SHT30;55104;47.356;19.448;2022-09-09T20:00:24;20.57;85.73
68274;SHT30;55104;47.356;19.448;2022-09-09T20:03:27;20.54;85.89
68274;SHT30;55104;47.356;19.448;2022-09-09T20:06:33;20.52;86.05
68274;SHT30;55104;47.356;19.448;2022-09-09T20:09:35;20.48;86.35
68274;SHT30;55104;47.356;19.448;2022-09-09T20:12:37;20.48;86.72
68274;SHT30;55104;47.356;19.448;2022-09-09T20:15:39;20.57;85.93
68274;SHT30;55104;47.356;19.448;2022-09-09T20:18:44;20.45;86.74
68274;SHT30;55104;47.356;19.448;2022-09-09T20:21:47;20.50;86.74
68274;SHT30;55104;47.356;19.448;2022-09-09T20:24:52;20.48;86.69
68274;SHT30;55104;47.356;19.448;2022-09-09T20:27:54;20.45;86.75
68274;SHT30;55104;47.356;19.448;2022-09-09T20:31:05;20.48;86.68
68274;SHT30;55104;47.356;19.448;2022-09-09T20:34:13;20.50;86.64
68274;SHT30;55104;47.356;19.448;2022-09-09T20:37:15;20.50;86.30
68274;SHT30;55104;47.356;19.448;2022-09-09T20:40:18;20.50;86.75
68274;SHT30;55104;47.356;19.448;2022-09-09T20:43:21;20.54;86.65
68274;SHT30;55104;47.356;19.448;2022-09-09T20:46:29;20.52;86.71
68274;SHT30;55104;47.356;19.448;2022-09-09T20:49:32;20.47;87.16
68274;SHT30;55104;47.356;19.448;2022-09-09T20:52:37;20.44;87.19
68274;SHT30;55104;47.356;19.448;2022-09-09T20:55:39;20.33;87.80